createdAt,value
2023-05-06T00:02:11.379Z,0
2023-05-06T00:07:15.502Z,0
2023-05-06T00:12:19.696Z,0
2023-05-06T00:17:21.974Z,0
2023-05-06T00:22:26.103Z,0
2023-05-06T00:27:28.411Z,0
2023-05-06T00:32:32.598Z,0
2023-05-06T00:37:36.718Z,0
2023-05-06T00:42:40.853Z,0
2023-05-06T00:47:45.052Z,0
2023-05-06T00:52:49.169Z,0
2023-05-06T00:57:53.412Z,0
2023-05-06T01:02:57.609Z,0
2023-05-06T01:08:01.675Z,0
2023-05-06T01:13:05.878Z,0
2023-05-06T01:18:10.162Z,0
2023-05-06T01:23:14.202Z,0
2023-05-06T01:28:18.341Z,0
2023-05-06T01:33:22.510Z,0
2023-05-06T01:38:26.682Z,0
2023-05-06T01:43:30.814Z,0
2023-05-06T01:48:35.001Z,0
2023-05-06T01:53:39.106Z,0
2023-05-06T01:58:43.278Z,0
2023-05-06T02:03:47.579Z,0
2023-05-06T02:08:51.613Z,0
2023-05-06T02:13:53.864Z,0
2023-05-06T02:18:58.070Z,0
2023-05-06T02:24:02.236Z,0
2023-05-06T02:29:06.362Z,0
2023-05-06T02:34:10.559Z,0
2023-05-06T02:39:14.690Z,0
2023-05-06T02:44:18.877Z,0
2023-05-06T02:49:23.019Z,0
2023-05-06T02:54:27.252Z,0
2023-05-06T02:59:31.366Z,0
2023-05-06T03:04:35.577Z,0
2023-05-06T03:09:39.692Z,0
2023-05-06T03:14:43.820Z,0
2023-05-06T03:19:47.997Z,0
2023-05-06T03:24:52.167Z,0
2023-05-06T03:29:56.317Z,2
2023-05-06T03:35:00.559Z,5
2023-05-06T03:40:04.658Z,13
2023-05-06T03:45:09.268Z,27
2023-05-06T03:50:12.990Z,48
2023-05-06T03:55:17.136Z,87
2023-05-06T04:00:19.381Z,143
2023-05-06T04:05:23.533Z,213
2023-05-06T04:10:25.852Z,304
2023-05-06T04:15:29.978Z,412
2023-05-06T04:20:34.177Z,603
2023-05-06T04:25:38.322Z,782
2023-05-06T04:30:42.476Z,906
2023-05-06T04:35:46.647Z,1030
2023-05-06T04:40:50.822Z,1152
2023-05-06T04:45:55.148Z,1294
2023-05-06T04:50:59.158Z,1458
2023-05-06T04:56:03.308Z,1606
2023-05-06T05:01:07.517Z,1739
2023-05-06T05:06:11.611Z,1880
2023-05-06T05:11:15.800Z,1970
2023-05-06T05:16:19.971Z,2127
2023-05-06T05:21:24.117Z,2296
2023-05-06T05:26:28.321Z,2353
2023-05-06T05:31:32.506Z,2354
2023-05-06T05:36:36.598Z,2532
2023-05-06T05:41:40.763Z,2707
2023-05-06T05:46:44.949Z,2696
2023-05-06T05:51:49.066Z,2722
2023-05-06T05:56:51.327Z,2914
2023-05-06T06:01:55.500Z,3139
2023-05-06T06:06:57.789Z,3246
2023-05-06T06:12:01.936Z,3122
2023-05-06T06:17:04.210Z,3322
2023-05-06T06:22:08.354Z,3474
2023-05-06T06:27:12.553Z,3647
2023-05-06T06:32:16.675Z,3551
2023-05-06T06:37:20.925Z,3428
2023-05-06T06:42:25.270Z,3198
2023-05-06T06:47:29.229Z,3325
2023-05-06T06:52:33.369Z,3339
2023-05-06T06:57:37.467Z,3385
2023-05-06T07:02:41.681Z,3221
2023-05-06T07:07:45.793Z,2908
2023-05-06T07:12:49.974Z,2983
2023-05-06T07:17:54.170Z,2887
2023-05-06T07:22:58.268Z,2850
2023-05-06T07:28:02.445Z,2819
2023-05-06T07:33:06.698Z,2745
2023-05-06T07:38:10.804Z,2702
2023-05-06T07:43:14.973Z,2670
2023-05-06T07:48:20.201Z,2613
2023-05-06T07:53:23.271Z,2520
2023-05-06T07:58:27.440Z,2515
2023-05-06T08:03:29.894Z,2497
2023-05-06T08:08:33.853Z,2479
2023-05-06T08:13:36.137Z,2547
2023-05-06T08:18:40.311Z,2610
2023-05-06T08:23:44.448Z,2378
2023-05-06T08:28:48.611Z,2403
2023-05-06T08:33:54.617Z,2383
2023-05-06T08:38:56.884Z,2952
2023-05-06T08:44:01.082Z,3437
2023-05-06T08:49:05.243Z,2760
2023-05-06T08:54:09.378Z,3200
2023-05-06T08:59:13.562Z,3455
2023-05-06T09:04:17.724Z,4260
2023-05-06T09:09:21.880Z,5550
2023-05-06T09:14:26.036Z,6615
2023-05-06T09:19:30.223Z,6681
2023-05-06T09:24:34.319Z,6590
2023-05-06T09:29:38.521Z,5655
2023-05-06T09:34:42.664Z,4898
2023-05-06T09:39:46.851Z,5730
2023-05-06T09:44:50.991Z,5116
2023-05-06T09:49:53.263Z,6818
2023-05-06T09:54:57.425Z,6593
2023-05-06T09:59:59.676Z,6300
2023-05-06T10:05:04.030Z,5998
2023-05-06T10:10:08.012Z,5991
2023-05-06T10:15:12.411Z,6310
2023-05-06T10:20:16.305Z,6342
2023-05-06T10:25:20.521Z,7117
2023-05-06T10:30:24.667Z,6850
2023-05-06T10:35:28.814Z,5905
2023-05-06T10:40:32.976Z,7543
2023-05-06T10:45:37.157Z,9465
2023-05-06T10:50:41.307Z,6874
2023-05-06T10:55:45.407Z,5889
2023-05-06T11:00:49.593Z,7816
2023-05-06T11:05:53.724Z,6556
2023-05-06T11:10:57.881Z,7740
2023-05-06T11:16:02.068Z,9014
2023-05-06T11:21:06.223Z,9285
2023-05-06T11:26:10.395Z,8705
2023-05-06T11:31:14.559Z,10561
2023-05-06T11:36:18.726Z,10648
2023-05-06T11:41:22.884Z,11729
2023-05-06T11:46:25.171Z,10160
2023-05-06T11:51:29.371Z,9719
2023-05-06T11:56:31.586Z,9480
2023-05-06T12:01:35.692Z,8114
2023-05-06T12:06:39.899Z,9220
2023-05-06T12:11:45.063Z,10773
2023-05-06T12:16:48.389Z,9946
2023-05-06T12:21:52.383Z,9110
2023-05-06T12:26:56.544Z,8155
2023-05-06T12:32:00.879Z,8727
2023-05-06T12:37:04.828Z,9570
2023-05-06T12:42:08.999Z,11331
2023-05-06T12:47:13.182Z,14549
2023-05-06T12:52:17.330Z,14396
2023-05-06T12:57:21.485Z,14167
2023-05-06T13:02:25.780Z,12864
2023-05-06T13:07:29.774Z,15379
2023-05-06T13:12:33.995Z,16115
2023-05-06T13:17:38.139Z,16082
2023-05-06T13:22:53.904Z,14605
2023-05-06T13:27:46.432Z,14328
2023-05-06T13:32:50.655Z,14211
2023-05-06T13:37:54.760Z,14449
2023-05-06T13:42:57.091Z,14273
2023-05-06T13:48:01.204Z,14162
2023-05-06T13:53:05.314Z,13898
2023-05-06T13:58:09.524Z,14385
2023-05-06T14:03:13.653Z,14559
2023-05-06T14:08:17.811Z,14629
2023-05-06T14:13:22.083Z,14404
2023-05-06T14:18:26.691Z,13478
2023-05-06T14:23:30.267Z,12533
2023-05-06T14:28:34.436Z,13835
2023-05-06T14:33:38.690Z,14961
2023-05-06T14:38:43.022Z,23147
2023-05-06T14:43:46.903Z,14141
2023-05-06T14:48:51.049Z,12184
2023-05-06T14:53:55.234Z,11876
2023-05-06T14:59:00.325Z,12288
2023-05-06T15:04:03.565Z,11243
2023-05-06T15:09:07.693Z,10192
2023-05-06T15:14:11.871Z,8133
2023-05-06T15:19:16.025Z,6140
2023-05-06T15:24:20.193Z,5458
2023-05-06T15:29:22.461Z,5714
2023-05-06T15:34:26.623Z,5401
2023-05-06T15:39:28.897Z,6090
2023-05-06T15:44:33.016Z,6411
2023-05-06T15:54:39.996Z,5541
2023-05-06T15:59:46.880Z,3826
2023-05-06T16:04:47.991Z,2818
2023-05-06T16:09:51.945Z,2560
2023-05-06T16:14:56.124Z,2571
2023-05-06T16:20:00.280Z,2388
2023-05-06T16:25:13.015Z,2251
2023-05-06T16:30:08.710Z,2262
2023-05-06T16:35:12.754Z,2558
2023-05-06T16:40:16.903Z,2715
2023-05-06T16:45:21.068Z,2633
2023-05-06T16:50:25.222Z,3020
2023-05-06T16:55:29.632Z,3413
2023-05-06T17:00:33.895Z,3379
2023-05-06T17:05:37.705Z,3556
2023-05-06T17:10:41.917Z,3552
2023-05-06T17:15:46.048Z,3411
2023-05-06T17:20:56.048Z,3030
2023-05-06T17:25:54.367Z,2804
2023-05-06T17:30:58.589Z,2842
2023-05-06T17:36:02.668Z,2959
2023-05-06T17:41:04.951Z,2625
2023-05-06T17:46:09.167Z,2072
2023-05-06T17:51:13.414Z,1696
2023-05-06T17:56:17.370Z,1500
2023-05-06T18:01:21.596Z,1390
2023-05-06T18:06:25.725Z,1311
2023-05-06T18:11:29.870Z,1189
2023-05-06T18:16:34.131Z,1020
2023-05-06T18:21:38.210Z,760
2023-05-06T18:26:45.351Z,595
2023-05-06T18:31:46.549Z,480
2023-05-06T18:36:53.358Z,376
2023-05-06T18:41:54.846Z,317
2023-05-06T18:46:59.013Z,265
2023-05-06T18:52:03.150Z,200
2023-05-06T18:57:07.377Z,145
2023-05-06T19:02:11.468Z,102
2023-05-06T19:07:16.290Z,65
2023-05-06T19:12:19.860Z,40
2023-05-06T19:17:24.021Z,22
2023-05-06T19:22:28.155Z,11
2023-05-06T19:27:30.426Z,5
2023-05-06T19:32:34.558Z,2
2023-05-06T19:37:36.843Z,0
2023-05-06T19:42:41.007Z,0
2023-05-06T19:47:45.257Z,0
2023-05-06T19:52:49.305Z,0
2023-05-06T19:57:53.460Z,0
2023-05-06T20:02:57.807Z,0
2023-05-06T20:08:01.833Z,0
2023-05-06T20:13:06.010Z,0
2023-05-06T20:18:10.133Z,0
2023-05-06T20:23:14.280Z,0
2023-05-06T20:28:18.422Z,0
2023-05-06T20:33:22.603Z,0
2023-05-06T20:38:26.841Z,0
2023-05-06T20:43:30.941Z,0
2023-05-06T20:48:35.104Z,0
2023-05-06T20:53:39.238Z,0
2023-05-06T20:58:43.404Z,0
2023-05-06T21:03:47.806Z,0
2023-05-06T21:08:51.692Z,0
2023-05-06T21:13:55.865Z,0
2023-05-06T21:19:00.006Z,0
2023-05-06T21:24:02.304Z,0
2023-05-06T21:29:06.481Z,0
2023-05-06T21:34:08.771Z,0
2023-05-06T21:39:12.876Z,0
2023-05-06T21:44:17.072Z,0
2023-05-06T21:49:21.230Z,0
2023-05-06T21:54:25.361Z,0
2023-05-06T21:59:29.555Z,0
2023-05-06T22:04:33.672Z,0
2023-05-06T22:09:37.956Z,0
2023-05-06T22:14:42.030Z,0
2023-05-06T22:19:46.202Z,0
2023-05-06T22:24:50.328Z,0
2023-05-06T22:29:54.680Z,0
2023-05-06T22:34:58.651Z,0
2023-05-06T22:40:02.805Z,0
2023-05-06T22:45:06.987Z,0
2023-05-06T22:50:11.151Z,0
2023-05-06T22:55:15.293Z,0
2023-05-06T23:00:19.451Z,0
2023-05-06T23:05:23.626Z,0
2023-05-06T23:10:27.767Z,0
2023-05-06T23:15:32.017Z,0
2023-05-06T23:20:34.235Z,0
2023-05-06T23:25:38.328Z,0
2023-05-06T23:30:40.644Z,0
2023-05-06T23:35:44.805Z,0
2023-05-06T23:40:48.939Z,0
2023-05-06T23:45:53.142Z,0
2023-05-06T23:50:57.288Z,0
2023-05-06T23:56:01.451Z,0
